Time;durP1;ratioP1;P1;durP2;ratioP2;P2;SDS_P1;SDS_P2;PMS_P1;PMS_P2;Temp;Humidity;BMP_temperature;BMP_pressure;BME280_temperature;BME280_humidity;BME280_pressure;Samples;Min_cycle;Max_cycle;Signal;HPM_P1;HPM_P2
2021/10/30 00:01:31;;;;;;;10.80;7.93;;;;;;;;;;4869283;29;20021;-82
2021/10/30 00:03:59;;;;;;;9.65;6.82;;;;;;;;;;4889399;29;20033;-82
2021/10/30 00:06:31;;;;;;;11.82;7.50;;;;;;;;;;4859240;29;20029;-81
2021/10/30 00:08:58;;;;;;;12.18;7.55;;;;;;;;;;4871522;29;20029;-82
2021/10/30 00:11:38;;;;;;;10.10;7.53;;;;;;;;;;4861867;29;20071;-82
2021/10/30 00:14:16;;;;;;;11.20;7.00;;;;;;;;;;4876821;29;20018;-82
2021/10/30 00:16:49;;;;;;;10.20;7.57;;;;;;;;;;4864018;29;20399;-82
2021/10/30 00:19:45;;;;;;;11.98;8.35;;;;;;;;;;4890704;29;20022;-80
2021/10/30 00:32:15;;;;;;;9.98;6.50;;;;;;;;;;4763312;30;20113;-81
2021/10/30 00:34:40;;;;;;;9.73;6.60;;;;;;;;;;4744267;30;20048;-80
2021/10/30 00:37:07;;;;;;;8.55;6.70;;;;;;;;;;4775461;30;20055;-81
2021/10/30 00:39:59;;;;;;;10.40;7.55;;;;;;;;;;4743883;30;20074;-81
2021/10/30 00:42:30;;;;;;;10.70;7.65;;;;;;;;;;4778970;30;20105;-81
2021/10/30 00:44:55;;;;;;;10.07;7.28;;;;;;;;;;4779660;30;20043;-81
2021/10/30 00:47:21;;;;;;;9.02;7.35;;;;;;;;;;4774615;30;20039;-80
2021/10/30 00:49:51;;;;;;;9.07;7.20;;;;;;;;;;4777742;30;20502;-81
2021/10/30 00:52:22;;;;;;;11.48;6.50;;;;;;;;;;4744281;30;20509;-81
2021/10/30 00:55:19;;;;;;;8.70;6.53;;;;;;;;;;4763848;30;20056;-81
2021/10/30 00:57:54;;;;;;;8.93;6.85;;;;;;;;;;4745336;30;20131;-82
2021/10/30 01:00:30;;;;;;;8.75;6.38;;;;;;;;;;4820659;29;20046;-82
2021/10/30 01:02:56;;;;;;;10.32;6.32;;;;;;;;;;4847062;29;20061;-81
2021/10/30 01:05:23;;;;;;;7.85;6.40;;;;;;;;;;4873878;29;20075;-82
2021/10/30 01:07:49;;;;;;;9.25;6.78;;;;;;;;;;4870004;29;20093;-81
2021/10/30 01:10:15;;;;;;;8.85;6.43;;;;;;;;;;4849439;29;20125;-81
2021/10/30 01:12:41;;;;;;;9.30;6.10;;;;;;;;;;4850908;29;20056;-80
2021/10/30 01:15:08;;;;;;;8.10;6.25;;;;;;;;;;4848353;29;20503;-81
2021/10/30 01:17:35;;;;;;;10.20;6.47;;;;;;;;;;4855433;29;20036;-81
2021/10/30 01:20:01;;;;;;;7.53;6.35;;;;;;;;;;4849917;29;20037;-81
2021/10/30 01:22:27;;;;;;;8.82;6.50;;;;;;;;;;4850388;29;20124;-81
2021/10/30 01:24:53;;;;;;;10.15;6.65;;;;;;;;;;4882312;29;20110;-81
2021/10/30 01:27:23;;;;;;;8.35;6.38;;;;;;;;;;4880362;29;20112;-80
2021/10/30 01:29:50;;;;;;;9.38;6.47;;;;;;;;;;4863223;29;20045;-81
2021/10/30 01:32:19;;;;;;;7.72;6.40;;;;;;;;;;4886914;29;20029;-81
2021/10/30 01:34:55;;;;;;;8.18;6.25;;;;;;;;;;4879345;29;20029;-82
2021/10/30 01:37:40;;;;;;;7.93;6.13;;;;;;;;;;4883691;29;20093;-81
2021/10/30 01:40:09;;;;;;;7.78;5.95;;;;;;;;;;4870676;29;20131;-82
2021/10/30 01:42:35;;;;;;;12.85;6.10;;;;;;;;;;4854173;29;20076;-81
2021/10/30 01:45:02;;;;;;;7.88;5.80;;;;;;;;;;4886590;29;20060;-81
2021/10/30 01:47:32;;;;;;;9.50;5.47;;;;;;;;;;4874717;29;20037;-81
2021/10/30 01:49:58;;;;;;;9.10;5.65;;;;;;;;;;4852356;29;20530;-82
2021/10/30 01:52:23;;;;;;;9.00;5.80;;;;;;;;;;4878831;29;20033;-81
2021/10/30 01:54:56;;;;;;;7.15;5.80;;;;;;;;;;4870422;29;20030;-82
2021/10/30 01:57:32;;;;;;;9.23;5.50;;;;;;;;;;4886046;29;20068;-82
2021/10/30 01:59:59;;;;;;;7.57;5.47;;;;;;;;;;4866814;29;20045;-81
2021/10/30 02:02:25;;;;;;;6.10;5.20;;;;;;;;;;4888542;29;20049;-81
2021/10/30 02:04:54;;;;;;;9.95;5.75;;;;;;;;;;4875895;29;20051;-83
2021/10/30 02:07:22;;;;;;;10.50;6.00;;;;;;;;;;4891785;29;20033;-81
2021/10/30 02:09:48;;;;;;;9.02;5.55;;;;;;;;;;4885371;29;20505;-80
2021/10/30 02:12:13;;;;;;;10.10;6.00;;;;;;;;;;4867376;29;20069;-81
2021/10/30 02:14:39;;;;;;;9.98;6.43;;;;;;;;;;4880802;29;20116;-81
2021/10/30 02:17:05;;;;;;;10.93;6.18;;;;;;;;;;4884483;29;20044;-83
2021/10/30 02:19:31;;;;;;;8.18;5.88;;;;;;;;;;4882530;29;20034;-81
2021/10/30 02:21:56;;;;;;;11.25;6.28;;;;;;;;;;4884769;29;20076;-81
2021/10/30 02:24:22;;;;;;;6.55;5.32;;;;;;;;;;4861937;29;20055;-81
2021/10/30 02:26:48;;;;;;;11.48;6.68;;;;;;;;;;4880627;29;20492;-81
2021/10/30 02:29:13;;;;;;;7.38;6.15;;;;;;;;;;4874762;29;20037;-80
2021/10/30 02:31:39;;;;;;;7.80;6.03;;;;;;;;;;4868286;29;20041;-80
2021/10/30 02:34:04;;;;;;;8.07;6.00;;;;;;;;;;4882610;29;20038;-82
2021/10/30 02:36:31;;;;;;;9.52;6.05;;;;;;;;;;4886785;29;20089;-82
2021/10/30 02:39:06;;;;;;;6.88;5.60;;;;;;;;;;4871987;29;20048;-82
2021/10/30 02:41:37;;;;;;;8.55;5.57;;;;;;;;;;4888203;29;20044;-81
2021/10/30 02:44:05;;;;;;;7.80;5.57;;;;;;;;;;4865363;29;20036;-82
2021/10/30 02:46:31;;;;;;;8.48;5.90;;;;;;;;;;4867854;29;20475;-82
2021/10/30 02:48:58;;;;;;;6.47;5.15;;;;;;;;;;4871640;29;20036;-81
2021/10/30 02:51:23;;;;;;;8.70;5.53;;;;;;;;;;4884475;29;20073;-79
2021/10/30 02:53:51;;;;;;;5.70;4.88;;;;;;;;;;4885369;29;20064;-81
2021/10/30 02:56:17;;;;;;;6.75;5.63;;;;;;;;;;4891146;29;20063;-81
2021/10/30 02:58:43;;;;;;;7.35;5.30;;;;;;;;;;4874897;29;20029;-82
2021/10/30 03:01:15;;;;;;;8.50;5.40;;;;;;;;;;4891917;29;20037;-81
2021/10/30 03:03:41;;;;;;;8.23;5.75;;;;;;;;;;4891142;29;20029;-80
2021/10/30 03:06:08;;;;;;;8.75;6.00;;;;;;;;;;4873948;29;20045;-82
2021/10/30 03:08:36;;;;;;;8.40;6.10;;;;;;;;;;4893486;29;20037;-81
2021/10/30 03:11:02;;;;;;;8.15;5.65;;;;;;;;;;4890536;29;20025;-81
2021/10/30 03:13:28;;;;;;;8.57;5.70;;;;;;;;;;4887266;29;20094;-81
2021/10/30 03:15:54;;;;;;;9.52;6.40;;;;;;;;;;4887436;29;20033;-81
2021/10/30 03:18:20;;;;;;;9.40;5.88;;;;;;;;;;4870554;29;20025;-81
2021/10/30 03:20:46;;;;;;;8.05;5.75;;;;;;;;;;4870237;29;20036;-81
2021/10/30 03:23:12;;;;;;;11.23;6.45;;;;;;;;;;4888691;29;20415;-80
2021/10/30 03:25:38;;;;;;;9.02;5.70;;;;;;;;;;4886769;29;20017;-81
2021/10/30 03:28:03;;;;;;;9.60;6.30;;;;;;;;;;4884237;29;20021;-80
2021/10/30 03:30:29;;;;;;;11.90;6.05;;;;;;;;;;4885573;29;20061;-79
2021/10/30 03:32:55;;;;;;;7.75;6.00;;;;;;;;;;4882784;29;20521;-78
2021/10/30 03:35:20;;;;;;;9.32;6.13;;;;;;;;;;4875690;29;20082;-81
2021/10/30 03:37:46;;;;;;;7.53;5.70;;;;;;;;;;4874943;29;20033;-80
2021/10/30 03:40:12;;;;;;;10.32;5.65;;;;;;;;;;4885078;29;20430;-80
2021/10/30 03:42:38;;;;;;;9.77;5.95;;;;;;;;;;4870856;29;20029;-79
2021/10/30 03:45:06;;;;;;;6.20;5.60;;;;;;;;;;4883417;29;20036;-82
2021/10/30 03:47:32;;;;;;;12.00;5.97;;;;;;;;;;4887218;29;20039;-81
2021/10/30 03:49:58;;;;;;;10.13;6.20;;;;;;;;;;4881578;29;20061;-81
2021/10/30 03:52:25;;;;;;;7.00;5.72;;;;;;;;;;4870870;29;20503;-81
2021/10/30 03:54:54;;;;;;;8.15;5.68;;;;;;;;;;4857438;29;20033;-80
2021/10/30 03:57:38;;;;;;;7.25;5.85;;;;;;;;;;4870982;29;20419;-81
2021/10/30 04:00:06;;;;;;;7.82;5.75;;;;;;;;;;4868640;29;20041;-81
2021/10/30 04:02:31;;;;;;;7.20;5.18;;;;;;;;;;4871636;29;20029;-81
2021/10/30 04:04:57;;;;;;;9.73;5.93;;;;;;;;;;4872089;29;20029;-81
2021/10/30 04:07:23;;;;;;;9.27;6.32;;;;;;;;;;4870880;29;20034;-82
2021/10/30 04:09:48;;;;;;;6.55;5.63;;;;;;;;;;4870640;29;20077;-81
2021/10/30 04:12:14;;;;;;;7.90;5.72;;;;;;;;;;4860360;29;20599;-80
2021/10/30 04:14:39;;;;;;;8.32;6.50;;;;;;;;;;4871622;29;20073;-81
2021/10/30 04:17:05;;;;;;;7.82;5.97;;;;;;;;;;4874483;29;20056;-81
2021/10/30 04:19:31;;;;;;;6.45;5.68;;;;;;;;;;4863900;29;20056;-80
2021/10/30 04:21:56;;;;;;;9.60;6.30;;;;;;;;;;4852954;29;20127;-81
2021/10/30 04:24:22;;;;;;;7.07;5.25;;;;;;;;;;4885882;29;20057;-81
2021/10/30 04:26:47;;;;;;;8.23;4.93;;;;;;;;;;4871046;29;20120;-81
2021/10/30 04:29:15;;;;;;;7.40;4.95;;;;;;;;;;4887595;29;20029;-82
2021/10/30 04:31:41;;;;;;;5.72;4.78;;;;;;;;;;4871646;29;20101;-82
2021/10/30 04:34:08;;;;;;;7.88;4.80;;;;;;;;;;4869461;29;20541;-81
2021/10/30 04:36:35;;;;;;;7.35;4.53;;;;;;;;;;4870463;29;20025;-81
2021/10/30 04:39:03;;;;;;;5.97;3.50;;;;;;;;;;4885727;29;20033;-80
2021/10/30 04:41:29;;;;;;;4.63;2.88;;;;;;;;;;4886375;29;20064;-81
2021/10/30 04:43:56;;;;;;;5.35;2.60;;;;;;;;;;4882450;29;20037;-82
2021/10/30 04:46:23;;;;;;;3.55;2.05;;;;;;;;;;4883772;29;20026;-81
2021/10/30 04:49:09;;;;;;;2.88;1.95;;;;;;;;;;4885434;29;20064;-82
2021/10/30 04:51:35;;;;;;;3.70;1.80;;;;;;;;;;4871586;29;20112;-82
2021/10/30 04:54:05;;;;;;;3.83;1.58;;;;;;;;;;4886720;29;20077;-82
2021/10/30 04:56:49;;;;;;;2.40;1.58;;;;;;;;;;4888459;29;20044;-81
2021/10/30 04:59:36;;;;;;;2.40;1.70;;;;;;;;;;4873654;29;20041;-84
2021/10/30 05:02:02;;;;;;;2.80;1.67;;;;;;;;;;4879424;29;20042;-82
2021/10/30 05:04:32;;;;;;;4.15;1.58;;;;;;;;;;4876526;29;20506;-82
2021/10/30 05:07:14;;;;;;;3.08;1.48;;;;;;;;;;4888571;29;20025;-82
2021/10/30 05:09:39;;;;;;;3.40;1.80;;;;;;;;;;4869493;29;20086;-82
2021/10/30 05:12:06;;;;;;;2.45;1.38;;;;;;;;;;4871581;29;20038;-81
2021/10/30 05:14:39;;;;;;;4.55;1.70;;;;;;;;;;4885666;29;20029;-84
2021/10/30 05:17:14;;;;;;;3.90;1.52;;;;;;;;;;4881707;29;20049;-82
2021/10/30 05:19:41;;;;;;;4.13;1.60;;;;;;;;;;4876398;29;20029;-82
2021/10/30 05:22:23;;;;;;;5.97;1.90;;;;;;;;;;4872574;29;20044;-82
2021/10/30 05:24:48;;;;;;;4.43;1.60;;;;;;;;;;4871130;29;20116;-81
2021/10/30 05:27:16;;;;;;;1.60;1.45;;;;;;;;;;4868539;29;20066;-81
2021/10/30 05:29:42;;;;;;;3.60;1.70;;;;;;;;;;4882372;29;20025;-82
2021/10/30 05:32:11;;;;;;;1.75;1.58;;;;;;;;;;4875827;29;20025;-80
2021/10/30 05:34:36;;;;;;;1.92;1.63;;;;;;;;;;4870945;29;20021;-82
2021/10/30 05:37:02;;;;;;;2.30;1.60;;;;;;;;;;4866163;29;20039;-81
2021/10/30 05:39:28;;;;;;;2.90;1.60;;;;;;;;;;4865255;29;20029;-81
2021/10/30 05:41:54;;;;;;;2.53;1.73;;;;;;;;;;4864675;29;20045;-81
2021/10/30 05:44:19;;;;;;;2.83;1.60;;;;;;;;;;4882436;29;20035;-80
2021/10/30 05:46:46;;;;;;;1.95;1.70;;;;;;;;;;4876375;29;20026;-81
2021/10/30 05:49:14;;;;;;;2.30;1.63;;;;;;;;;;4879925;29;20045;-81
2021/10/30 05:51:40;;;;;;;4.88;1.63;;;;;;;;;;4865876;29;20104;-81
2021/10/30 05:54:07;;;;;;;3.00;1.58;;;;;;;;;;4880837;29;20048;-81
2021/10/30 05:56:32;;;;;;;3.30;1.73;;;;;;;;;;4879227;29;20025;-81
2021/10/30 05:58:58;;;;;;;4.50;1.70;;;;;;;;;;4882966;29;20157;-81
2021/10/30 06:01:28;;;;;;;3.08;1.80;;;;;;;;;;4880631;29;20029;-80
2021/10/30 06:04:10;;;;;;;2.67;1.80;;;;;;;;;;4870281;29;20036;-83
2021/10/30 06:06:35;;;;;;;4.00;1.80;;;;;;;;;;4889334;29;20066;-82
2021/10/30 06:09:02;;;;;;;2.90;1.85;;;;;;;;;;4870055;29;20029;-83
2021/10/30 06:11:28;;;;;;;4.28;1.67;;;;;;;;;;4880690;29;20066;-82
2021/10/30 06:14:10;;;;;;;2.90;1.90;;;;;;;;;;4880149;29;20030;-82
2021/10/30 06:16:35;;;;;;;2.60;1.67;;;;;;;;;;4850772;29;20087;-80
2021/10/30 06:19:01;;;;;;;3.42;1.80;;;;;;;;;;4876870;29;20520;-81
2021/10/30 06:21:27;;;;;;;4.05;2.10;;;;;;;;;;4878089;29;20071;-79
2021/10/30 06:23:54;;;;;;;4.57;1.90;;;;;;;;;;4880302;29;20076;-80
2021/10/30 06:26:20;;;;;;;3.00;1.80;;;;;;;;;;4884051;29;20029;-81
2021/10/30 06:28:46;;;;;;;4.10;1.85;;;;;;;;;;4879354;29;20029;-79
2021/10/30 06:31:11;;;;;;;5.35;2.00;;;;;;;;;;4880338;29;20510;-80
2021/10/30 06:33:36;;;;;;;3.47;1.63;;;;;;;;;;4881190;29;20033;-79
2021/10/30 06:36:02;;;;;;;5.68;1.65;;;;;;;;;;4880247;29;20036;-79
2021/10/30 06:38:27;;;;;;;5.07;2.08;;;;;;;;;;4880722;29;20037;-81
2021/10/30 06:40:56;;;;;;;1.90;1.70;;;;;;;;;;4880336;29;20036;-80
2021/10/30 06:43:21;;;;;;;3.35;1.92;;;;;;;;;;4879829;29;20036;-80
2021/10/30 06:45:47;;;;;;;5.45;1.90;;;;;;;;;;4882322;29;20030;-82
2021/10/30 06:48:12;;;;;;;3.83;1.70;;;;;;;;;;4880213;29;20031;-79
2021/10/30 06:50:37;;;;;;;3.43;1.80;;;;;;;;;;4879400;29;20029;-81
2021/10/30 06:53:03;;;;;;;3.85;1.88;;;;;;;;;;4863580;29;20300;-81
2021/10/30 06:55:28;;;;;;;4.00;1.80;;;;;;;;;;4879922;29;20028;-79
2021/10/30 06:57:53;;;;;;;5.38;1.80;;;;;;;;;;4880423;29;20040;-81
2021/10/30 07:00:19;;;;;;;3.13;1.75;;;;;;;;;;4880122;29;20123;-80
2021/10/30 07:02:47;;;;;;;5.00;2.10;;;;;;;;;;4878026;29;20029;-80
2021/10/30 07:05:13;;;;;;;4.45;1.92;;;;;;;;;;4879386;29;20481;-81
2021/10/30 07:07:38;;;;;;;2.92;1.48;;;;;;;;;;4876907;29;20076;-80
2021/10/30 07:10:04;;;;;;;4.45;1.50;;;;;;;;;;4879523;29;20061;-80
2021/10/30 07:12:33;;;;;;;6.22;1.85;;;;;;;;;;4879483;29;20240;-79
2021/10/30 07:14:59;;;;;;;2.15;1.55;;;;;;;;;;4878833;29;20033;-79
2021/10/30 07:17:24;;;;;;;2.58;1.52;;;;;;;;;;4876606;29;20037;-77
2021/10/30 07:19:50;;;;;;;3.30;1.70;;;;;;;;;;4878523;29;20041;-77
2021/10/30 07:22:16;;;;;;;2.83;1.70;;;;;;;;;;4886446;29;20056;-77
2021/10/30 07:24:43;;;;;;;2.80;1.52;;;;;;;;;;4878228;29;20113;-78
2021/10/30 07:27:10;;;;;;;8.25;1.80;;;;;;;;;;4873210;29;20048;-75
2021/10/30 07:29:36;;;;;;;5.30;1.50;;;;;;;;;;4885321;29;20041;-78
2021/10/30 07:32:01;;;;;;;3.15;1.30;;;;;;;;;;4876439;29;20398;-78
2021/10/30 07:34:26;;;;;;;6.00;1.52;;;;;;;;;;4881593;29;20079;-77
2021/10/30 07:36:54;;;;;;;2.92;1.25;;;;;;;;;;4886693;29;20036;-76
2021/10/30 07:39:20;;;;;;;1.98;1.33;;;;;;;;;;4879613;29;20029;-75
2021/10/30 07:41:46;;;;;;;4.80;2.33;;;;;;;;;;4876683;29;20509;-77
2021/10/30 07:44:11;;;;;;;3.58;1.70;;;;;;;;;;4873341;29;20025;-77
2021/10/30 07:46:38;;;;;;;2.03;1.40;;;;;;;;;;4876460;29;20510;-77
2021/10/30 07:49:03;;;;;;;4.38;1.23;;;;;;;;;;4878385;29;20289;-77
2021/10/30 07:51:29;;;;;;;5.88;1.30;;;;;;;;;;4878274;29;20053;-76
2021/10/30 07:53:54;;;;;;;3.97;1.75;;;;;;;;;;4876643;29;20078;-76
2021/10/30 07:56:20;;;;;;;2.58;1.27;;;;;;;;;;4876365;29;20076;-78
2021/10/30 07:58:46;;;;;;;3.50;1.23;;;;;;;;;;4859856;29;20705;-77
2021/10/30 08:01:12;;;;;;;1.88;1.00;;;;;;;;;;4871302;29;20037;-77
2021/10/30 08:03:37;;;;;;;2.28;1.10;;;;;;;;;;4879103;29;20116;-77
2021/10/30 08:06:02;;;;;;;2.17;1.33;;;;;;;;;;4877680;29;20032;-76
2021/10/30 08:08:29;;;;;;;3.42;1.20;;;;;;;;;;4877650;29;20029;-77
2021/10/30 08:10:54;;;;;;;2.38;1.10;;;;;;;;;;4876208;29;20033;-77
2021/10/30 08:13:20;;;;;;;2.45;1.00;;;;;;;;;;4877465;29;20040;-77
2021/10/30 08:15:45;;;;;;;3.20;1.05;;;;;;;;;;4878912;29;20132;-78
2021/10/30 08:18:10;;;;;;;1.20;0.90;;;;;;;;;;4876209;29;20541;-78
2021/10/30 08:20:36;;;;;;;3.45;1.10;;;;;;;;;;4877082;29;20507;-77
2021/10/30 08:23:01;;;;;;;2.80;1.00;;;;;;;;;;4875532;29;20037;-77
2021/10/30 08:25:27;;;;;;;4.22;1.00;;;;;;;;;;4872022;29;20521;-77
2021/10/30 08:27:53;;;;;;;2.15;0.90;;;;;;;;;;4878279;29;20033;-76
2021/10/30 08:30:19;;;;;;;2.58;1.00;;;;;;;;;;4878198;29;20498;-76
2021/10/30 08:32:44;;;;;;;2.20;1.10;;;;;;;;;;4871541;29;20044;-77
2021/10/30 08:35:10;;;;;;;2.45;1.00;;;;;;;;;;4868904;29;20033;-77
2021/10/30 08:37:38;;;;;;;3.40;0.97;;;;;;;;;;4877521;29;21552;-77
2021/10/30 08:40:05;;;;;;;1.33;0.93;;;;;;;;;;4878038;29;20305;-77
2021/10/30 08:42:31;;;;;;;3.80;1.30;;;;;;;;;;4878924;29;20039;-76
2021/10/30 08:44:56;;;;;;;2.85;1.08;;;;;;;;;;4876370;29;20409;-79
2021/10/30 08:47:22;;;;;;;1.50;1.05;;;;;;;;;;4877648;29;20062;-77
2021/10/30 08:49:48;;;;;;;4.00;1.00;;;;;;;;;;4872472;29;20032;-79
2021/10/30 08:52:13;;;;;;;1.80;1.00;;;;;;;;;;4874603;29;20109;-78
2021/10/30 08:54:38;;;;;;;2.50;0.93;;;;;;;;;;4879580;29;20029;-77
2021/10/30 08:57:07;;;;;;;3.30;0.98;;;;;;;;;;4877540;29;20068;-77
2021/10/30 08:59:41;;;;;;;1.20;1.10;;;;;;;;;;4876731;29;20044;-79
2021/10/30 09:02:09;;;;;;;3.00;1.05;;;;;;;;;;4869063;29;20176;-77
2021/10/30 09:04:34;;;;;;;3.53;1.02;;;;;;;;;;4876103;29;20029;-77
2021/10/30 09:07:04;;;;;;;2.63;1.30;;;;;;;;;;4876636;29;20478;-80
2021/10/30 09:09:31;;;;;;;1.85;1.33;;;;;;;;;;4877495;29;20037;-78
2021/10/30 09:12:03;;;;;;;4.40;2.00;;;;;;;;;;4877448;29;20108;-80
2021/10/30 09:14:31;;;;;;;2.38;1.70;;;;;;;;;;4871838;29;20491;-75
2021/10/30 09:17:15;;;;;;;2.63;1.80;;;;;;;;;;4876143;29;20490;-79
2021/10/30 09:19:55;;;;;;;2.47;1.70;;;;;;;;;;4873800;29;20041;-77
2021/10/30 09:22:24;;;;;;;2.47;1.20;;;;;;;;;;4871449;29;20480;-79
2021/10/30 09:24:52;;;;;;;3.35;1.50;;;;;;;;;;4877911;29;20136;-80
2021/10/30 09:27:21;;;;;;;1.63;1.30;;;;;;;;;;4873155;29;20046;-78
2021/10/30 09:29:55;;;;;;;2.60;1.50;;;;;;;;;;4880238;29;20044;-78
2021/10/30 09:32:26;;;;;;;2.42;1.30;;;;;;;;;;4875581;29;20041;-80
2021/10/30 09:34:51;;;;;;;5.03;1.30;;;;;;;;;;4877646;29;20094;-79
2021/10/30 09:37:21;;;;;;;2.78;1.45;;;;;;;;;;4877514;29;20026;-80
2021/10/30 09:39:46;;;;;;;4.43;1.65;;;;;;;;;;4879071;29;20132;-78
2021/10/30 09:42:24;;;;;;;3.47;1.50;;;;;;;;;;4877101;29;20109;-77
2021/10/30 09:45:06;;;;;;;2.42;1.25;;;;;;;;;;4876714;29;20506;-80
2021/10/30 09:47:32;;;;;;;1.75;1.50;;;;;;;;;;4876973;29;20057;-78
2021/10/30 09:49:57;;;;;;;1.35;1.17;;;;;;;;;;4867989;29;20049;-80
2021/10/30 09:52:28;;;;;;;1.73;1.30;;;;;;;;;;4876966;29;20066;-79
2021/10/30 09:54:53;;;;;;;2.95;1.40;;;;;;;;;;4877163;29;20470;-79
2021/10/30 09:57:30;;;;;;;1.95;1.25;;;;;;;;;;4859557;29;20056;-80
2021/10/30 10:00:01;;;;;;;2.75;1.40;;;;;;;;;;4875533;29;20128;-80
2021/10/30 10:02:26;;;;;;;;;;;;;;;;;;4875693;29;20052;-79
2021/10/30 10:04:52;;;;;;;1.63;1.40;;;;;;;;;;4876617;29;19974;-79
2021/10/30 10:07:25;;;;;;;2.15;1.25;;;;;;;;;;4874305;29;20448;-78
2021/10/30 10:09:51;;;;;;;3.25;1.50;;;;;;;;;;4874242;29;20033;-80
2021/10/30 10:12:17;;;;;;;1.65;1.17;;;;;;;;;;4877424;29;20047;-79
2021/10/30 10:14:43;;;;;;;1.42;1.25;;;;;;;;;;4876457;29;20033;-79
2021/10/30 10:17:09;;;;;;;2.85;1.40;;;;;;;;;;4876082;29;20033;-79
2021/10/30 10:19:37;;;;;;;2.92;1.13;;;;;;;;;;4875146;29;20033;-80
2021/10/30 10:22:03;;;;;;;44.80;4.05;;;;;;;;;;4875299;29;20101;-79
2021/10/30 10:24:30;;;;;;;8.95;1.80;;;;;;;;;;4876147;29;20053;-80
2021/10/30 10:26:58;;;;;;;14.07;2.20;;;;;;;;;;4873367;29;20091;-79
2021/10/30 10:29:31;;;;;;;10.95;3.20;;;;;;;;;;4875088;29;20120;-80
2021/10/30 10:32:01;;;;;;;3.97;1.90;;;;;;;;;;4876419;29;20116;-80
2021/10/30 10:34:31;;;;;;;3.40;1.23;;;;;;;;;;4876400;29;20120;-80
2021/10/30 10:37:12;;;;;;;3.08;1.20;;;;;;;;;;4876657;29;20065;-80
2021/10/30 10:39:39;;;;;;;4.00;1.08;;;;;;;;;;4876057;29;20041;-79
2021/10/30 10:42:05;;;;;;;2.65;1.35;;;;;;;;;;4874540;29;20040;-79
2021/10/30 10:44:30;;;;;;;1.55;1.15;;;;;;;;;;4876230;29;20060;-76
2021/10/30 10:47:00;;;;;;;1.87;1.17;;;;;;;;;;4872180;29;20063;-79
2021/10/30 10:52:29;;;;;;;3.33;1.30;;;;;;;;;;4876677;29;20096;-80
2021/10/30 10:54:54;;;;;;;1.63;0.95;;;;;;;;;;4873812;29;20039;-80
2021/10/30 10:57:21;;;;;;;3.00;1.00;;;;;;;;;;4875662;29;20033;-79
2021/10/30 10:59:58;;;;;;;1.30;1.08;;;;;;;;;;4875315;29;20045;-80
2021/10/30 11:02:51;;;;;;;1.23;1.05;;;;;;;;;;4875308;29;20092;-79
2021/10/30 11:05:20;;;;;;;2.17;0.90;;;;;;;;;;4862446;29;20049;-80
2021/10/30 11:07:48;;;;;;;1.20;1.00;;;;;;;;;;4879456;29;20036;-81
2021/10/30 11:10:16;;;;;;;2.63;1.08;;;;;;;;;;4863500;29;20119;-79
2021/10/30 11:13:01;;;;;;;1.50;1.23;;;;;;;;;;4861602;29;20022;-80
2021/10/30 11:15:28;;;;;;;1.20;1.00;;;;;;;;;;4879491;29;20127;-79
2021/10/30 11:20:34;;;;;;;1.67;0.93;;;;;;;;;;4879474;29;20100;-80
2021/10/30 11:23:02;;;;;;;1.10;1.00;;;;;;;;;;4878745;29;20040;-78
2021/10/30 11:25:31;;;;;;;1.83;1.05;;;;;;;;;;4879163;29;20521;-78
2021/10/30 11:27:58;;;;;;;1.27;1.13;;;;;;;;;;4880061;29;20052;-81
2021/10/30 11:30:37;;;;;;;2.00;0.90;;;;;;;;;;4880707;29;20033;-81
2021/10/30 11:33:23;;;;;;;2.17;1.00;;;;;;;;;;4879071;29;20475;-79
2021/10/30 11:36:03;;;;;;;3.25;1.08;;;;;;;;;;4878864;29;20498;-80
2021/10/30 11:38:38;;;;;;;1.95;1.30;;;;;;;;;;4879051;29;20025;-81
2021/10/30 11:41:07;;;;;;;1.17;0.98;;;;;;;;;;4880042;29;20138;-80
2021/10/30 11:43:35;;;;;;;1.35;0.85;;;;;;;;;;4877501;29;20071;-81
2021/10/30 11:46:08;;;;;;;2.95;0.93;;;;;;;;;;4879347;29;20035;-80
2021/10/30 11:48:47;;;;;;;1.70;1.00;;;;;;;;;;4879919;29;20402;-80
2021/10/30 11:51:14;;;;;;;1.10;1.00;;;;;;;;;;4878257;29;20514;-79
2021/10/30 11:53:40;;;;;;;1.25;1.10;;;;;;;;;;4878325;29;20085;-79
2021/10/30 11:56:08;;;;;;;1.15;0.90;;;;;;;;;;4860571;29;20406;-80
2021/10/30 11:58:42;;;;;;;1.25;1.00;;;;;;;;;;4877600;29;20108;-78
2021/10/30 12:01:27;;;;;;;1.33;0.75;;;;;;;;;;4878877;29;20595;-79
2021/10/30 12:03:58;;;;;;;3.03;1.10;;;;;;;;;;4877006;29;20047;-79
2021/10/30 12:06:27;;;;;;;1.05;0.95;;;;;;;;;;4879748;29;20037;-80
2021/10/30 12:08:56;;;;;;;0.90;0.80;;;;;;;;;;4878542;29;20040;-80
2021/10/30 12:11:22;;;;;;;0.98;0.85;;;;;;;;;;4878505;29;20056;-78
2021/10/30 12:13:48;;;;;;;1.45;1.00;;;;;;;;;;4867585;29;20413;-80
2021/10/30 12:16:14;;;;;;;0.60;0.60;;;;;;;;;;4877896;29;20059;-78
2021/10/30 12:18:41;;;;;;;2.15;0.90;;;;;;;;;;4880047;29;20029;-80
2021/10/30 12:21:12;;;;;;;0.93;0.80;;;;;;;;;;4878005;29;20033;-79
2021/10/30 12:23:58;;;;;;;1.08;0.60;;;;;;;;;;4877848;29;20072;-78
2021/10/30 12:26:30;;;;;;;1.38;0.88;;;;;;;;;;4878172;29;20121;-77
2021/10/30 12:29:16;;;;;;;1.20;0.70;;;;;;;;;;4878359;29;20047;-78
2021/10/30 12:31:54;;;;;;;2.78;0.95;;;;;;;;;;4875785;29;20466;-80
2021/10/30 12:34:25;;;;;;;1.42;0.70;;;;;;;;;;4876058;29;20032;-80
2021/10/30 12:36:50;;;;;;;1.75;0.82;;;;;;;;;;4879820;29;20116;-79
2021/10/30 12:39:20;;;;;;;1.30;0.90;;;;;;;;;;4878733;29;20129;-79
2021/10/30 12:41:52;;;;;;;2.45;0.90;;;;;;;;;;4877525;29;20029;-78
2021/10/30 12:44:42;;;;;;;0.80;0.80;;;;;;;;;;4877841;29;20120;-78
2021/10/30 12:47:13;;;;;;;0.80;0.80;;;;;;;;;;4877147;29;20573;-79
2021/10/30 12:49:40;;;;;;;1.40;1.08;;;;;;;;;;4886345;29;20033;-80
2021/10/30 12:52:11;;;;;;;1.10;0.77;;;;;;;;;;4877730;29;24345;-79
2021/10/30 12:54:40;;;;;;;1.80;1.00;;;;;;;;;;4879728;29;20104;-79
2021/10/30 12:57:19;;;;;;;2.05;0.75;;;;;;;;;;4877583;29;20414;-79
2021/10/30 12:59:44;;;;;;;0.70;0.70;;;;;;;;;;4876011;29;20033;-81
2021/10/30 13:02:10;;;;;;;0.80;0.80;;;;;;;;;;4876797;29;20418;-77
2021/10/30 13:04:40;;;;;;;1.20;0.82;;;;;;;;;;4876988;29;20337;-80
2021/10/30 13:07:10;;;;;;;1.10;1.00;;;;;;;;;;4877449;29;20077;-81
2021/10/30 13:09:37;;;;;;;1.00;0.70;;;;;;;;;;4878765;29;20410;-78
2021/10/30 13:12:03;;;;;;;1.52;0.95;;;;;;;;;;4876602;29;20036;-80
2021/10/30 13:14:29;;;;;;;0.70;0.70;;;;;;;;;;4876673;29;20044;-80
2021/10/30 13:16:55;;;;;;;1.27;0.70;;;;;;;;;;4876243;29;20088;-79
2021/10/30 13:19:21;;;;;;;3.70;0.80;;;;;;;;;;4878489;29;20044;-78
2021/10/30 13:21:48;;;;;;;0.60;0.60;;;;;;;;;;4866247;29;20039;-79
2021/10/30 13:24:14;;;;;;;2.10;0.80;;;;;;;;;;4878138;29;20076;-81
2021/10/30 13:26:40;;;;;;;0.70;0.70;;;;;;;;;;4875297;29;20053;-79
2021/10/30 13:29:05;;;;;;;0.80;0.80;;;;;;;;;;4879308;29;20049;-81
2021/10/30 13:31:34;;;;;;;2.83;0.82;;;;;;;;;;4876334;29;20036;-80
2021/10/30 13:33:59;;;;;;;1.08;0.98;;;;;;;;;;4878872;29;20112;-79
2021/10/30 13:36:25;;;;;;;1.45;0.80;;;;;;;;;;4863104;29;20634;-79
2021/10/30 13:38:52;;;;;;;1.13;0.90;;;;;;;;;;4875743;29;20127;-80
2021/10/30 13:41:19;;;;;;;1.60;1.00;;;;;;;;;;4875632;29;20030;-79
2021/10/30 13:43:47;;;;;;;0.73;0.63;;;;;;;;;;4881554;29;20025;-81
2021/10/30 13:46:12;;;;;;;2.13;0.90;;;;;;;;;;4884100;29;20033;-80
2021/10/30 13:48:37;;;;;;;1.95;0.95;;;;;;;;;;4878033;29;20029;-80
2021/10/30 13:51:03;;;;;;;1.65;0.80;;;;;;;;;;4877497;29;20025;-80
2021/10/30 13:53:29;;;;;;;2.42;0.82;;;;;;;;;;4883298;29;20033;-80
2021/10/30 13:55:58;;;;;;;2.67;0.80;;;;;;;;;;4879973;29;20041;-80
2021/10/30 13:58:23;;;;;;;1.00;0.80;;;;;;;;;;4876425;29;20494;-80
2021/10/30 14:00:49;;;;;;;0.88;0.75;;;;;;;;;;4864910;29;20041;-79
2021/10/30 14:03:14;;;;;;;1.30;0.95;;;;;;;;;;4875903;29;20037;-80
2021/10/30 14:05:41;;;;;;;1.05;0.95;;;;;;;;;;4881743;29;20037;-81
2021/10/30 14:08:07;;;;;;;1.55;1.08;;;;;;;;;;4883045;29;20495;-80
2021/10/30 14:10:32;;;;;;;5.35;1.10;;;;;;;;;;4856113;29;20029;-80
2021/10/30 14:12:57;;;;;;;1.45;1.23;;;;;;;;;;4876577;29;20025;-81
2021/10/30 14:15:23;;;;;;;2.03;0.93;;;;;;;;;;4877508;29;20025;-81
2021/10/30 14:17:48;;;;;;;1.65;1.00;;;;;;;;;;4874600;29;20494;-81
2021/10/30 14:20:13;;;;;;;3.03;1.08;;;;;;;;;;4876580;29;20451;-81
2021/10/30 14:22:40;;;;;;;1.00;0.80;;;;;;;;;;4876330;29;20040;-81
2021/10/30 14:25:06;;;;;;;0.80;0.70;;;;;;;;;;4878933;29;20450;-81
2021/10/30 14:27:31;;;;;;;0.70;0.70;;;;;;;;;;4878418;29;20029;-80
2021/10/30 14:29:57;;;;;;;1.83;1.00;;;;;;;;;;4874927;29;20041;-80
2021/10/30 14:32:25;;;;;;;1.13;0.93;;;;;;;;;;4877818;29;20098;-79
2021/10/30 14:34:52;;;;;;;1.25;0.93;;;;;;;;;;4873660;29;20025;-81
2021/10/30 14:37:18;;;;;;;1.92;0.80;;;;;;;;;;4882334;29;20514;-80
2021/10/30 14:39:43;;;;;;;2.55;0.90;;;;;;;;;;4878677;29;20492;-81
2021/10/30 14:42:09;;;;;;;1.05;0.90;;;;;;;;;;4877491;29;20037;-78
2021/10/30 14:44:34;;;;;;;1.38;0.90;;;;;;;;;;4878574;29;20045;-81
2021/10/30 14:47:00;;;;;;;1.75;0.93;;;;;;;;;;4879298;29;20569;-81
2021/10/30 14:49:26;;;;;;;6.43;0.90;;;;;;;;;;4878564;29;20029;-81
2021/10/30 14:51:52;;;;;;;1.48;1.10;;;;;;;;;;4880845;29;20034;-80
2021/10/30 14:54:17;;;;;;;0.80;0.80;;;;;;;;;;4879415;29;20096;-80
2021/10/30 14:56:43;;;;;;;1.15;0.88;;;;;;;;;;4878390;29;20045;-80
2021/10/30 14:59:09;;;;;;;0.80;0.80;;;;;;;;;;4880030;29;20040;-81
2021/10/30 15:01:35;;;;;;;0.90;0.77;;;;;;;;;;4878401;29;20105;-80
2021/10/30 15:04:01;;;;;;;3.55;1.00;;;;;;;;;;4879423;29;20486;-80
2021/10/30 15:06:26;;;;;;;0.85;0.85;;;;;;;;;;4880129;29;20029;-80